createdAt,value
2022-10-01T00:02:53.364Z,12.13
2022-10-01T00:06:09.300Z,12.12
2022-10-01T00:09:15.174Z,12.11
2022-10-01T00:12:21.043Z,12.11
2022-10-01T00:15:27.661Z,12.11
2022-10-01T00:18:33.503Z,12.10
2022-10-01T00:21:39.365Z,12.10
2022-10-01T00:24:45.359Z,12.10
2022-10-01T00:27:51.282Z,12.10
2022-10-01T00:30:57.207Z,12.09
2022-10-01T00:34:04.518Z,12.08
2022-10-01T00:37:10.839Z,12.08
2022-10-01T00:40:16.771Z,12.07
2022-10-01T00:43:25.824Z,12.06
2022-10-01T00:46:38.982Z,12.06
2022-10-01T00:49:47.387Z,12.05
2022-10-01T00:52:58.130Z,12.04
2022-10-01T00:56:04.669Z,12.03
2022-10-01T00:59:11.659Z,12.02
2022-10-01T01:02:17.558Z,12.01
2022-10-01T01:05:24.482Z,11.99
2022-10-01T01:08:30.598Z,11.98
2022-10-01T01:11:40.646Z,11.97
2022-10-01T01:14:54.587Z,11.95
2022-10-01T01:18:09.453Z,11.94
2022-10-01T01:21:33.803Z,11.93
2022-10-01T01:24:53.065Z,11.91
2022-10-01T01:28:13.786Z,11.91
2022-10-01T01:31:25.360Z,11.89
2022-10-01T01:34:33.979Z,11.85
2022-10-01T01:37:46.067Z,11.83
2022-10-01T01:40:55.977Z,11.82
2022-10-01T01:44:07.028Z,11.82
2022-10-01T01:47:14.570Z,11.83
2022-10-01T01:50:21.215Z,11.83
2022-10-01T01:53:27.559Z,11.83
2022-10-01T01:56:35.882Z,11.80
2022-10-01T01:59:43.382Z,11.79
2022-10-01T02:02:53.772Z,11.79
2022-10-01T02:06:13.534Z,11.79
2022-10-01T02:09:28.576Z,11.79
2022-10-01T02:12:50.091Z,11.77
2022-10-01T02:16:06.485Z,11.77
2022-10-01T02:19:23.341Z,11.77
2022-10-01T02:22:41.252Z,11.78
2022-10-01T02:25:52.408Z,11.80
2022-10-01T02:29:04.749Z,11.80
2022-10-01T02:32:12.537Z,11.78
2022-10-01T02:35:20.522Z,11.78
2022-10-01T02:38:27.449Z,11.78
2022-10-01T02:41:37.410Z,11.77
2022-10-01T02:44:45.967Z,11.77
2022-10-01T02:47:55.874Z,11.78
2022-10-01T02:51:16.567Z,11.78
2022-10-01T02:54:28.636Z,11.78
2022-10-01T02:57:34.910Z,11.76
2022-10-01T03:00:40.769Z,11.76
2022-10-01T03:03:46.629Z,11.75
2022-10-01T03:06:52.486Z,11.75
2022-10-01T03:09:58.986Z,11.76
2022-10-01T03:13:06.263Z,11.76
2022-10-01T03:16:12.176Z,11.76
2022-10-01T03:19:18.343Z,11.77
2022-10-01T03:22:24.975Z,11.76
2022-10-01T03:25:30.821Z,11.76
2022-10-01T03:28:36.659Z,11.75
2022-10-01T03:31:42.600Z,11.75
2022-10-01T03:34:48.806Z,11.74
2022-10-01T03:37:53.141Z,11.64
2022-10-01T03:40:59.091Z,11.58
2022-10-01T03:44:05.108Z,11.58
2022-10-01T03:47:11.036Z,11.58
2022-10-01T03:50:17.082Z,11.60
2022-10-01T03:53:23.015Z,11.61
2022-10-01T03:56:29.269Z,11.62
2022-10-01T03:59:36.178Z,11.62
2022-10-01T04:02:42.130Z,11.60
2022-10-01T04:05:48.642Z,11.56
2022-10-01T04:08:54.503Z,11.55
2022-10-01T04:12:00.551Z,11.50
2022-10-01T04:15:07.134Z,11.43
2022-10-01T04:18:13.319Z,11.39
2022-10-01T04:21:17.535Z,11.37
2022-10-01T04:24:23.406Z,11.37
2022-10-01T04:27:29.270Z,11.38
2022-10-01T04:30:37.858Z,11.39
2022-10-01T04:33:44.003Z,11.41
2022-10-01T04:36:48.212Z,11.46
2022-10-01T04:39:54.446Z,11.50
2022-10-01T04:43:00.515Z,11.50
2022-10-01T04:46:06.480Z,11.48
2022-10-01T04:49:12.341Z,11.50
2022-10-01T04:52:18.230Z,11.53
2022-10-01T04:55:24.635Z,11.56
2022-10-01T04:58:31.579Z,11.58
2022-10-01T05:01:37.972Z,11.61
2022-10-01T05:04:44.299Z,11.64
2022-10-01T05:07:51.210Z,11.66
2022-10-01T05:10:57.059Z,11.69
2022-10-01T05:14:03.105Z,11.70
2022-10-01T05:17:09.274Z,11.73
2022-10-01T05:20:16.929Z,11.75
2022-10-01T05:23:22.769Z,11.77
2022-10-01T05:26:29.753Z,11.77
2022-10-01T05:29:35.615Z,11.78
2022-10-01T05:32:41.990Z,11.80
2022-10-01T05:35:47.987Z,11.81
2022-10-01T05:38:53.835Z,11.83
2022-10-01T05:42:05.361Z,11.85
2022-10-01T05:45:13.498Z,11.87
2022-10-01T05:48:19.347Z,11.90
2022-10-01T05:51:25.323Z,11.92
2022-10-01T05:54:31.738Z,11.94
2022-10-01T05:57:37.654Z,11.95
2022-10-01T06:00:44.250Z,11.95
2022-10-01T06:03:53.698Z,11.96
2022-10-01T06:06:59.660Z,12.00
2022-10-01T06:10:06.521Z,12.02
2022-10-01T06:13:17.983Z,12.05
2022-10-01T06:16:24.014Z,12.07
2022-10-01T06:19:29.937Z,12.10
2022-10-01T06:22:35.850Z,12.14
2022-10-01T06:25:42.935Z,12.19
2022-10-01T06:28:52.780Z,12.25
2022-10-01T06:31:58.645Z,12.31
2022-10-01T06:35:04.919Z,12.34
2022-10-01T06:38:11.038Z,12.39
2022-10-01T06:41:15.233Z,12.41
2022-10-01T06:44:21.045Z,12.42
2022-10-01T06:47:26.982Z,12.44
2022-10-01T06:50:34.007Z,12.46
2022-10-01T06:53:39.966Z,12.48
2022-10-01T06:56:45.829Z,12.52
2022-10-01T06:59:52.222Z,12.55
2022-10-01T07:02:58.841Z,12.55
2022-10-01T07:06:11.143Z,12.57
2022-10-01T07:09:17.014Z,12.62
2022-10-01T07:12:23.139Z,12.64
2022-10-01T07:15:27.366Z,12.67
2022-10-01T07:18:33.201Z,12.71
2022-10-01T07:21:39.065Z,12.75
2022-10-01T07:24:44.910Z,12.80
2022-10-01T07:27:50.798Z,12.86
2022-10-01T07:31:05.204Z,12.92
2022-10-01T07:34:11.050Z,12.96
2022-10-01T07:37:16.959Z,13.01
2022-10-01T07:40:22.838Z,13.04
2022-10-01T07:43:28.690Z,13.04
2022-10-01T07:46:34.942Z,13.05
2022-10-01T07:49:40.855Z,13.08
2022-10-01T07:52:46.685Z,13.14
2022-10-01T07:55:52.551Z,13.19
2022-10-01T07:58:59.506Z,13.22
2022-10-01T08:02:05.431Z,13.23
2022-10-01T08:05:22.043Z,13.27
2022-10-01T08:08:28.014Z,13.33
2022-10-01T08:11:34.604Z,13.34
2022-10-01T08:14:40.730Z,13.37
2022-10-01T08:17:47.067Z,13.41
2022-10-01T08:20:53.249Z,13.47
2022-10-01T08:23:59.125Z,13.52
2022-10-01T08:27:05.091Z,13.56
2022-10-01T08:30:12.622Z,13.61
2022-10-01T08:33:18.578Z,13.67
2022-10-01T08:36:24.432Z,13.75
2022-10-01T08:39:30.275Z,13.80
2022-10-01T08:43:00.187Z,13.87
2022-10-01T08:46:09.447Z,13.95
2022-10-01T08:49:22.443Z,14.03
2022-10-01T08:52:31.184Z,14.10
2022-10-01T08:55:38.064Z,14.16
2022-10-01T08:58:54.731Z,14.26
2022-10-01T09:02:00.912Z,14.34
2022-10-01T09:05:09.333Z,14.38
2022-10-01T09:08:25.458Z,14.44
2022-10-01T09:11:45.776Z,14.51
2022-10-01T09:15:05.679Z,14.60
2022-10-01T09:18:23.095Z,14.67
2022-10-01T09:21:42.335Z,14.76
2022-10-01T09:24:53.359Z,14.83
2022-10-01T09:28:08.455Z,14.87
2022-10-01T09:31:22.964Z,14.90
2022-10-01T09:34:35.300Z,14.94
2022-10-01T09:37:48.338Z,14.94
2022-10-01T09:40:57.012Z,14.94
2022-10-01T09:44:03.190Z,14.92
2022-10-01T09:47:19.404Z,14.90
2022-10-01T09:50:35.122Z,14.92
2022-10-01T09:53:46.310Z,14.92
2022-10-01T09:56:56.378Z,14.91
2022-10-01T10:00:10.165Z,14.94
2022-10-01T10:03:26.765Z,14.96
2022-10-01T10:06:34.357Z,14.99
2022-10-01T10:09:41.565Z,15.02
2022-10-01T10:12:49.321Z,15.04
2022-10-01T10:15:57.829Z,15.04
2022-10-01T10:19:10.466Z,15.06
2022-10-01T10:22:25.030Z,15.07
2022-10-01T10:25:30.970Z,15.09
2022-10-01T10:28:46.084Z,15.04
2022-10-01T10:31:52.343Z,14.99
2022-10-01T10:35:03.738Z,14.99
2022-10-01T10:38:20.511Z,15.00
2022-10-01T10:41:27.419Z,15.02
2022-10-01T10:44:37.442Z,14.95
2022-10-01T10:47:49.964Z,14.92
2022-10-01T10:51:02.720Z,14.88
2022-10-01T10:54:21.306Z,14.91
2022-10-01T10:57:30.130Z,14.96
2022-10-01T11:00:44.937Z,14.98
2022-10-01T11:03:55.514Z,14.96
2022-10-01T11:07:02.826Z,14.97
2022-10-01T11:10:35.494Z,14.93
2022-10-01T11:13:58.508Z,14.89
2022-10-01T11:17:28.397Z,14.89
2022-10-01T11:20:47.563Z,14.89
2022-10-01T11:24:11.630Z,14.91
2022-10-01T11:27:26.563Z,14.93
2022-10-01T11:30:41.032Z,14.88
2022-10-01T11:33:59.530Z,14.87
2022-10-01T11:37:18.873Z,14.82
2022-10-01T11:40:30.144Z,14.79
2022-10-01T11:43:41.448Z,14.78
2022-10-01T11:46:54.866Z,14.82
2022-10-01T11:50:04.316Z,14.91
2022-10-01T11:53:17.082Z,14.97
2022-10-01T11:59:50.243Z,15.06
2022-10-01T12:03:00.930Z,15.12
2022-10-01T12:06:14.988Z,15.18
2022-10-01T12:09:26.311Z,15.23
2022-10-01T12:12:37.160Z,15.24
2022-10-01T12:15:51.307Z,15.18
2022-10-01T12:19:03.918Z,15.12
2022-10-01T12:22:16.243Z,15.10
2022-10-01T12:25:29.097Z,15.09
2022-10-01T12:28:55.562Z,15.12
2022-10-01T12:32:11.746Z,15.18
2022-10-01T12:35:36.090Z,15.23
2022-10-01T12:38:55.609Z,15.25
2022-10-01T12:42:13.051Z,15.26
2022-10-01T12:45:31.615Z,15.26
2022-10-01T12:48:47.695Z,15.27
2022-10-01T12:52:02.116Z,15.28
2022-10-01T12:55:29.499Z,15.29
2022-10-01T12:59:08.846Z,15.29
2022-10-01T13:02:30.556Z,15.31
2022-10-01T13:05:44.737Z,15.35
2022-10-01T13:09:02.116Z,15.39
2022-10-01T13:12:23.348Z,15.41
2022-10-01T13:15:35.356Z,15.43
2022-10-01T13:18:54.574Z,15.46
2022-10-01T13:22:14.625Z,15.49
2022-10-01T13:25:32.276Z,15.52
2022-10-01T13:28:53.826Z,15.55
2022-10-01T13:32:01.338Z,15.61
2022-10-01T13:35:25.911Z,15.69
2022-10-01T13:38:41.053Z,15.77
2022-10-01T13:41:48.156Z,15.82
2022-10-01T13:44:59.852Z,15.83
2022-10-01T13:48:14.844Z,15.81
2022-10-01T13:51:21.685Z,15.79
2022-10-01T13:54:31.228Z,15.79
2022-10-01T13:57:39.447Z,15.79
2022-10-01T14:00:53.720Z,15.80
2022-10-01T14:04:08.500Z,15.80
2022-10-01T14:07:22.301Z,15.80
2022-10-01T14:10:57.956Z,15.80
2022-10-01T14:14:31.875Z,15.80
2022-10-01T14:17:39.169Z,15.79
2022-10-01T14:21:00.276Z,15.78
2022-10-01T14:24:17.103Z,15.77
2022-10-01T14:27:30.252Z,15.75
2022-10-01T14:30:44.258Z,15.70
2022-10-01T14:34:36.920Z,15.68
2022-10-01T14:37:43.535Z,15.66
2022-10-01T14:40:51.403Z,15.62
2022-10-01T14:43:57.649Z,15.54
2022-10-01T14:47:13.396Z,15.46
2022-10-01T14:50:20.367Z,15.41
2022-10-01T14:53:28.511Z,15.30
2022-10-01T14:56:35.779Z,15.23
2022-10-01T14:59:43.584Z,15.17
2022-10-01T15:02:52.000Z,15.15
2022-10-01T15:06:12.863Z,15.16
2022-10-01T15:09:20.873Z,15.14
2022-10-01T15:12:28.360Z,15.08
2022-10-01T15:15:41.207Z,15.07
2022-10-01T15:18:53.546Z,15.03
2022-10-01T15:22:02.042Z,14.96
2022-10-01T15:25:17.220Z,14.98
2022-10-01T15:28:32.098Z,15.00
2022-10-01T15:31:39.712Z,15.02
2022-10-01T15:34:49.914Z,15.02
2022-10-01T15:38:00.792Z,15.01
2022-10-01T15:41:30.583Z,15.01
2022-10-01T15:44:51.427Z,15.01
2022-10-01T15:47:58.231Z,15.00
2022-10-01T15:51:07.420Z,14.98
2022-10-01T15:54:17.503Z,14.97
2022-10-01T15:57:25.897Z,14.95
2022-10-01T16:00:35.277Z,14.92
2022-10-01T16:03:49.526Z,14.91
2022-10-01T16:06:56.070Z,14.90
2022-10-01T16:10:15.338Z,14.87
2022-10-01T16:13:42.104Z,14.85
2022-10-01T16:16:48.536Z,14.82
2022-10-01T16:19:56.842Z,14.80
2022-10-01T16:23:37.003Z,14.77
2022-10-01T16:26:44.436Z,14.73
2022-10-01T16:30:05.607Z,14.70
2022-10-01T16:33:13.336Z,14.68
2022-10-01T16:36:24.195Z,14.64
2022-10-01T16:39:30.391Z,14.59
2022-10-01T16:42:37.413Z,14.55
2022-10-01T16:45:44.065Z,14.51
2022-10-01T16:48:52.597Z,14.48
2022-10-01T16:51:59.099Z,14.43
2022-10-01T16:55:05.415Z,14.42
2022-10-01T16:58:11.808Z,14.42
2022-10-01T17:01:17.979Z,14.37
2022-10-01T17:04:29.225Z,14.35
2022-10-01T17:07:38.036Z,14.34
2022-10-01T17:10:47.863Z,14.32
2022-10-01T17:13:54.361Z,14.30
2022-10-01T17:17:00.491Z,14.27
2022-10-01T17:20:05.726Z,14.24
2022-10-01T17:23:13.948Z,14.22
2022-10-01T17:26:20.242Z,14.20
2022-10-01T17:29:26.831Z,14.15
2022-10-01T17:32:34.107Z,14.14
2022-10-01T17:35:44.784Z,14.12
2022-10-01T17:38:50.975Z,14.11
2022-10-01T17:41:57.819Z,14.07
2022-10-01T17:45:05.544Z,14.03
2022-10-01T17:48:12.089Z,13.99
2022-10-01T17:51:18.515Z,13.98
2022-10-01T17:54:25.401Z,13.96
2022-10-01T17:57:31.455Z,13.93
2022-10-01T18:00:36.034Z,13.90
2022-10-01T18:03:42.621Z,13.86
2022-10-01T18:06:49.799Z,13.85
2022-10-01T18:09:56.202Z,13.85
2022-10-01T18:13:02.383Z,13.84
2022-10-01T18:16:14.123Z,13.82
2022-10-01T18:22:48.796Z,13.79
2022-10-01T18:25:55.079Z,13.78
2022-10-01T18:29:01.293Z,13.74
2022-10-01T18:32:15.398Z,13.72
2022-10-01T18:35:29.213Z,13.70
2022-10-01T18:38:38.788Z,13.67
2022-10-01T18:41:45.503Z,13.64
2022-10-01T18:44:56.868Z,13.62
2022-10-01T18:48:16.814Z,13.59
2022-10-01T18:51:33.412Z,13.56
2022-10-01T18:55:03.773Z,13.54
2022-10-01T18:58:33.501Z,13.52
2022-10-01T19:01:48.671Z,13.49
2022-10-01T19:05:25.087Z,13.46
2022-10-01T19:08:52.985Z,13.42
2022-10-01T19:12:17.174Z,13.38
2022-10-01T19:15:38.711Z,13.35
2022-10-01T19:18:58.486Z,13.33
2022-10-01T19:22:14.965Z,13.28
2022-10-01T19:25:27.225Z,13.23
2022-10-01T19:28:49.847Z,13.21
2022-10-01T19:32:00.154Z,13.18
2022-10-01T19:35:17.102Z,13.16
2022-10-01T19:38:29.593Z,13.13
2022-10-01T19:41:43.344Z,13.10
2022-10-01T19:45:00.853Z,13.08
2022-10-01T19:48:15.274Z,13.00
2022-10-01T19:51:26.147Z,12.77
2022-10-01T19:54:35.186Z,12.57
2022-10-01T19:57:44.861Z,12.38
2022-10-01T20:00:57.122Z,12.25
2022-10-01T20:04:06.588Z,12.09
2022-10-01T20:07:18.593Z,11.93
2022-10-01T20:10:31.596Z,11.81
2022-10-01T20:13:55.474Z,11.69
2022-10-01T20:17:04.991Z,11.55
2022-10-01T20:20:19.039Z,11.45
2022-10-01T20:23:40.324Z,11.40
2022-10-01T20:26:53.610Z,11.34
2022-10-01T20:30:07.034Z,11.27
2022-10-01T20:33:24.251Z,11.24
2022-10-01T20:36:38.417Z,11.19
2022-10-01T20:39:49.589Z,11.15
2022-10-01T20:43:01.536Z,11.09
2022-10-01T20:46:11.986Z,11.06
2022-10-01T20:49:32.543Z,11.04
2022-10-01T20:52:47.339Z,11.03
2022-10-01T20:55:57.286Z,11.04
2022-10-01T20:59:09.569Z,11.07
2022-10-01T21:02:30.195Z,11.10
2022-10-01T21:05:42.790Z,11.11
2022-10-01T21:08:53.712Z,11.10
2022-10-01T21:12:04.646Z,11.12
2022-10-01T21:15:14.946Z,11.11
2022-10-01T21:18:29.471Z,11.11
2022-10-01T21:21:46.460Z,11.12
2022-10-01T21:25:02.984Z,11.15
2022-10-01T21:28:31.740Z,11.13
2022-10-01T21:31:49.789Z,11.12
2022-10-01T21:35:07.572Z,11.13
2022-10-01T21:38:28.630Z,11.14
2022-10-01T21:41:55.583Z,11.17
2022-10-01T21:45:14.687Z,11.17
2022-10-01T21:48:37.905Z,11.17
2022-10-01T21:51:58.719Z,11.17
2022-10-01T21:55:17.457Z,11.18
2022-10-01T21:58:37.216Z,11.15
2022-10-01T22:02:01.843Z,11.11
2022-10-01T22:05:23.527Z,11.10
2022-10-01T22:08:48.455Z,11.09
2022-10-01T22:11:59.637Z,11.06
2022-10-01T22:15:14.189Z,11.06
2022-10-01T22:18:26.201Z,11.06
2022-10-01T22:21:38.467Z,11.06
2022-10-01T22:24:50.581Z,11.04
2022-10-01T22:28:01.601Z,11.02
2022-10-01T22:31:12.303Z,11.03
2022-10-01T22:34:23.926Z,11.03
2022-10-01T22:37:34.502Z,11.02
2022-10-01T22:40:46.419Z,11.03
2022-10-01T22:43:52.658Z,11.02
2022-10-01T22:47:21.957Z,10.99
2022-10-01T22:50:39.709Z,10.99
2022-10-01T22:54:03.237Z,10.99
2022-10-01T22:57:29.754Z,10.98
2022-10-01T23:00:44.105Z,10.96
2022-10-01T23:04:09.552Z,10.94
2022-10-01T23:07:22.208Z,10.92
2022-10-01T23:10:39.556Z,10.91
2022-10-01T23:13:53.441Z,10.91
2022-10-01T23:17:05.615Z,10.90
2022-10-01T23:20:25.175Z,10.87
2022-10-01T23:23:34.009Z,10.86
2022-10-01T23:26:51.402Z,10.85
2022-10-01T23:30:11.857Z,10.85
2022-10-01T23:33:32.299Z,10.85
2022-10-01T23:36:46.347Z,10.84
2022-10-01T23:39:56.651Z,10.83
2022-10-01T23:43:10.771Z,10.80
2022-10-01T23:46:23.399Z,10.80
2022-10-01T23:49:33.839Z,10.81
2022-10-01T23:52:46.791Z,10.84
2022-10-01T23:56:18.115Z,10.85
2022-10-01T23:59:30.168Z,10.84
